Time;durP1;ratioP1;P1;durP2;ratioP2;P2;SDS_P1;SDS_P2;PMS_P1;PMS_P2;Temp;Humidity;BMP_temperature;BMP_pressure;BME280_temperature;BME280_humidity;BME280_pressure;Samples;Min_cycle;Max_cycle;Signal;HPM_P1;HPM_P2
2022/01/05 00:00:33;;;;;;;5.70;2.87;;;5.50;99.90;;;;;;5053699;28;20559;-71
2022/01/05 00:02:58;;;;;;;7.27;3.10;;;5.50;99.90;;;;;;5072039;28;20587;-70
2022/01/05 00:05:24;;;;;;;9.60;3.40;;;5.40;99.90;;;;;;5053665;28;20290;-71
2022/01/05 00:07:49;;;;;;;7.93;3.10;;;5.50;99.90;;;;;;5053094;28;20295;-71
2022/01/05 00:10:15;;;;;;;5.37;2.73;;;5.40;99.90;;;;;;5071175;28;20599;-71
2022/01/05 00:12:40;;;;;;;7.13;2.73;;;5.40;99.90;;;;;;5053212;28;20246;-71
2022/01/05 00:15:06;;;;;;;5.00;2.20;;;5.50;99.90;;;;;;5054128;28;20183;-71
2022/01/05 00:17:32;;;;;;;7.53;2.93;;;5.40;99.90;;;;;;5053147;28;20212;-71
2022/01/05 00:19:58;;;;;;;4.83;3.13;;;5.30;99.90;;;;;;5046723;28;20226;-71
2022/01/05 00:22:23;;;;;;;11.17;2.57;;;5.30;99.90;;;;;;5070957;28;20207;-71
2022/01/05 00:24:49;;;;;;;5.27;2.20;;;5.30;99.90;;;;;;5053230;28;20202;-71
2022/01/05 00:27:15;;;;;;;2.93;1.80;;;5.30;99.90;;;;;;5052848;28;20183;-71
2022/01/05 00:29:40;;;;;;;4.40;1.77;;;5.30;99.90;;;;;;5071289;28;20211;-71
2022/01/05 00:32:07;;;;;;;7.13;2.10;;;5.30;99.90;;;;;;5052748;28;20199;-71
2022/01/05 00:34:33;;;;;;;5.80;2.00;;;5.30;99.90;;;;;;5071049;28;20751;-71
2022/01/05 00:36:58;;;;;;;4.60;2.00;;;5.30;99.90;;;;;;5052626;28;20207;-71
2022/01/05 00:39:24;;;;;;;4.53;1.93;;;5.40;99.90;;;;;;5052388;28;20344;-71
2022/01/05 00:41:49;;;;;;;8.13;2.33;;;5.40;99.90;;;;;;5053280;28;20211;-71
2022/01/05 00:44:15;;;;;;;5.83;1.80;;;5.40;99.90;;;;;;5070991;28;20202;-71
2022/01/05 00:46:40;;;;;;;5.60;2.30;;;5.40;99.90;;;;;;5070617;28;20574;-71
2022/01/05 00:49:06;;;;;;;7.27;1.80;;;5.30;99.90;;;;;;5065954;28;20222;-71
2022/01/05 00:51:31;;;;;;;4.20;2.00;;;5.40;99.90;;;;;;5050527;28;20225;-71
2022/01/05 00:53:57;;;;;;;3.80;1.33;;;5.40;99.90;;;;;;5053233;28;20186;-71
2022/01/05 00:56:23;;;;;;;5.67;1.80;;;5.40;99.90;;;;;;5070448;28;20245;-70
2022/01/05 00:58:48;;;;;;;3.80;1.60;;;5.30;99.90;;;;;;5052372;28;20218;-71
2022/01/05 01:01:14;;;;;;;5.03;1.77;;;5.30;99.90;;;;;;5052610;28;20568;-71
2022/01/05 01:03:42;;;;;;;8.07;2.00;;;5.40;99.90;;;;;;5052592;28;20214;-71
2022/01/05 01:06:08;;;;;;;4.20;2.13;;;5.30;99.90;;;;;;5052627;28;20232;-70
2022/01/05 01:08:33;;;;;;;5.33;2.00;;;5.30;99.90;;;;;;5070562;28;20194;-71
2022/01/05 01:10:59;;;;;;;5.00;1.77;;;5.40;99.90;;;;;;5071416;28;20195;-71
2022/01/05 01:13:24;;;;;;;6.23;1.43;;;5.40;99.90;;;;;;5053651;28;20226;-71
2022/01/05 01:15:51;;;;;;;4.70;1.40;;;5.40;99.90;;;;;;5057314;28;20226;-71
2022/01/05 01:18:17;;;;;;;7.33;2.27;;;5.40;99.90;;;;;;5069342;28;20597;-71
2022/01/05 01:20:44;;;;;;;5.70;1.53;;;5.40;99.90;;;;;;5053487;28;20245;-71
2022/01/05 01:23:10;;;;;;;4.90;1.60;;;5.30;99.90;;;;;;5059872;28;20675;-71
2022/01/05 01:25:36;;;;;;;3.13;1.67;;;5.40;99.90;;;;;;5060117;28;20203;-71
2022/01/05 01:28:02;;;;;;;8.83;3.80;;;5.50;99.90;;;;;;5059288;28;20225;-71
2022/01/05 01:30:31;;;;;;;3.83;1.70;;;5.50;99.90;;;;;;5076944;28;20548;-71
2022/01/05 01:32:56;;;;;;;4.93;1.73;;;5.50;99.90;;;;;;5059644;28;20166;-71
2022/01/05 01:35:22;;;;;;;5.33;1.90;;;5.60;99.90;;;;;;5076737;28;20671;-70
2022/01/05 01:37:48;;;;;;;3.77;1.40;;;5.50;99.90;;;;;;5076326;28;20732;-71
2022/01/05 01:40:14;;;;;;;3.03;1.60;;;5.50;99.90;;;;;;5058895;28;20254;-70
2022/01/05 01:42:39;;;;;;;5.50;1.33;;;5.50;99.90;;;;;;5058510;28;20592;-72
2022/01/05 01:45:05;;;;;;;4.20;1.50;;;5.60;99.90;;;;;;5060108;28;20542;-71
2022/01/05 01:47:31;;;;;;;5.60;1.57;;;5.60;99.90;;;;;;5058526;28;20207;-71
2022/01/05 01:49:56;;;;;;;4.97;1.30;;;5.60;99.90;;;;;;5052002;28;20659;-71
2022/01/05 01:52:22;;;;;;;6.20;1.60;;;5.60;99.90;;;;;;5058238;28;20566;-71
2022/01/05 01:54:48;;;;;;;6.00;1.33;;;5.60;99.90;;;;;;5076771;28;20300;-71
2022/01/05 01:57:14;;;;;;;8.80;1.60;;;5.60;99.90;;;;;;5058482;28;20175;-71
2022/01/05 01:59:40;;;;;;;6.50;1.53;;;5.50;99.90;;;;;;5076892;28;20194;-71
2022/01/05 02:02:07;;;;;;;8.07;1.57;;;5.50;99.90;;;;;;5058582;28;20288;-71
2022/01/05 02:04:35;;;;;;;5.50;1.17;;;5.60;99.90;;;;;;5058545;28;20261;-71
2022/01/05 02:07:01;;;;;;;4.20;1.30;;;5.60;99.90;;;;;;5058337;28;20199;-69
2022/01/05 02:09:27;;;;;;;6.47;1.73;;;5.50;99.90;;;;;;5058327;28;20194;-71
2022/01/05 02:11:53;;;;;;;6.10;1.40;;;5.60;99.90;;;;;;5077075;28;20216;-71
2022/01/05 02:14:18;;;;;;;3.00;1.20;;;5.60;99.90;;;;;;5058733;28;20218;-71
2022/01/05 02:16:45;;;;;;;5.07;1.43;;;5.60;99.90;;;;;;5058207;28;20202;-71
2022/01/05 02:19:12;;;;;;;5.23;1.40;;;5.60;99.90;;;;;;5052975;28;20215;-70
2022/01/05 02:21:38;;;;;;;4.00;1.43;;;5.60;99.90;;;;;;5057166;28;20206;-70
2022/01/05 02:24:06;;;;;;;6.07;1.87;;;5.50;99.90;;;;;;5059203;28;20175;-70
2022/01/05 02:26:32;;;;;;;6.17;1.70;;;5.50;99.90;;;;;;5074434;28;20689;-71
2022/01/05 02:28:58;;;;;;;6.30;1.50;;;5.50;99.90;;;;;;5054903;28;20218;-71
2022/01/05 02:31:24;;;;;;;8.37;1.57;;;5.50;99.90;;;;;;5055090;28;20206;-71
2022/01/05 02:33:49;;;;;;;3.33;1.13;;;5.50;99.90;;;;;;5055091;28;20582;-70
2022/01/05 02:36:19;;;;;;;5.83;1.20;;;5.40;99.90;;;;;;5055259;28;20566;-71
2022/01/05 02:38:45;;;;;;;4.23;1.20;;;5.40;99.90;;;;;;5072933;28;20214;-71
2022/01/05 02:41:12;;;;;;;5.00;1.47;;;5.40;99.90;;;;;;5055122;28;20218;-72
2022/01/05 02:43:39;;;;;;;3.73;1.20;;;5.40;99.90;;;;;;5055031;28;20207;-71
2022/01/05 02:46:09;;;;;;;7.30;2.07;;;5.50;99.90;;;;;;5055082;28;20195;-70
2022/01/05 02:48:34;;;;;;;8.40;2.00;;;5.50;99.90;;;;;;5072259;28;20698;-71
2022/01/05 02:51:00;;;;;;;4.90;1.27;;;5.50;99.90;;;;;;5049088;28;20167;-71
2022/01/05 02:53:25;;;;;;;8.77;1.53;;;5.50;99.90;;;;;;5054918;28;20603;-70
2022/01/05 02:55:52;;;;;;;7.00;1.50;;;5.50;99.90;;;;;;5072011;28;20196;-71
2022/01/05 02:58:18;;;;;;;5.23;1.83;;;5.50;99.90;;;;;;5054391;28;20294;-71
2022/01/05 03:00:44;;;;;;;9.70;1.37;;;5.50;99.90;;;;;;5072657;28;20282;-71
2022/01/05 03:03:10;;;;;;;8.20;1.40;;;5.50;99.90;;;;;;5054760;28;20183;-70
2022/01/05 03:05:35;;;;;;;4.10;1.30;;;5.50;99.90;;;;;;5055174;28;20182;-71
2022/01/05 03:08:01;;;;;;;7.43;1.90;;;5.50;99.90;;;;;;5072273;28;20203;-71
2022/01/05 03:10:26;;;;;;;6.23;1.53;;;5.50;99.90;;;;;;5054702;28;20414;-71
2022/01/05 03:12:52;;;;;;;5.47;1.83;;;5.50;99.90;;;;;;5054484;28;20210;-71
2022/01/05 03:15:18;;;;;;;9.33;1.20;;;5.50;99.90;;;;;;5072466;28;20179;-71
2022/01/05 03:17:44;;;;;;;7.27;1.60;;;5.50;99.90;;;;;;5054323;28;20175;-70
2022/01/05 03:20:11;;;;;;;4.17;1.43;;;5.50;99.90;;;;;;5047873;28;20215;-70
2022/01/05 03:22:38;;;;;;;3.73;1.43;;;5.50;99.90;;;;;;5054209;28;20267;-71
2022/01/05 03:25:04;;;;;;;9.80;1.70;;;5.50;99.90;;;;;;5054409;28;20595;-70
2022/01/05 03:27:30;;;;;;;8.43;1.50;;;5.50;99.90;;;;;;5053803;28;20336;-70
2022/01/05 03:29:56;;;;;;;9.93;2.10;;;5.50;99.90;;;;;;5054551;28;20195;-70
2022/01/05 03:32:22;;;;;;;7.20;1.90;;;5.50;99.90;;;;;;5071802;28;20203;-70
2022/01/05 03:34:50;;;;;;;5.80;1.80;;;5.40;99.90;;;;;;5054329;28;20213;-70
2022/01/05 03:37:16;;;;;;;5.57;1.40;;;5.40;99.90;;;;;;5069122;28;20748;-70
2022/01/05 03:39:41;;;;;;;5.57;2.43;;;5.40;99.90;;;;;;5041103;28;20215;-70
2022/01/05 03:42:07;;;;;;;7.40;1.47;;;5.30;99.90;;;;;;5054280;28;20214;-70
2022/01/05 03:44:34;;;;;;;4.80;1.50;;;5.30;99.90;;;;;;5071947;28;20260;-70
2022/01/05 03:47:00;;;;;;;3.10;1.23;;;5.40;99.90;;;;;;5071599;28;20222;-71
2022/01/05 03:49:26;;;;;;;5.93;1.57;;;5.30;99.90;;;;;;5071181;28;20218;-70
2022/01/05 03:51:52;;;;;;;7.50;1.60;;;5.40;99.90;;;;;;5053365;28;20206;-70
2022/01/05 03:54:18;;;;;;;5.30;1.53;;;5.30;99.90;;;;;;5071699;28;20520;-71
2022/01/05 03:56:44;;;;;;;3.93;1.37;;;5.30;99.90;;;;;;5071586;28;20159;-70
2022/01/05 03:59:09;;;;;;;3.97;1.27;;;5.30;99.90;;;;;;5071243;28;20217;-70
2022/01/05 04:01:35;;;;;;;5.93;1.50;;;5.30;99.90;;;;;;5053234;28;20230;-71
2022/01/05 04:04:01;;;;;;;4.47;1.43;;;5.30;99.90;;;;;;5053546;28;20210;-71
2022/01/05 04:06:26;;;;;;;8.00;1.90;;;5.30;99.90;;;;;;5053027;28;20163;-71
2022/01/05 04:08:52;;;;;;;7.33;1.50;;;5.30;99.90;;;;;;5065992;28;20624;-71
2022/01/05 04:11:17;;;;;;;5.67;1.50;;;5.40;99.90;;;;;;5071156;28;20207;-71
2022/01/05 04:13:43;;;;;;;5.10;1.50;;;5.30;99.90;;;;;;5070993;28;20226;-71
2022/01/05 04:16:08;;;;;;;9.93;1.90;;;5.40;99.90;;;;;;5053513;28;20238;-70
2022/01/05 04:18:34;;;;;;;11.77;1.40;;;5.40;99.90;;;;;;5070805;28;20702;-71
2022/01/05 04:20:59;;;;;;;7.50;1.63;;;5.30;99.90;;;;;;5071510;28;20171;-71
2022/01/05 04:23:25;;;;;;;9.43;2.00;;;5.30;99.90;;;;;;5052305;28;20272;-71
2022/01/05 04:25:50;;;;;;;8.40;1.20;;;5.30;99.90;;;;;;5045463;28;20305;-71
2022/01/05 04:28:16;;;;;;;8.50;1.87;;;5.30;99.90;;;;;;5052759;28;20214;-70
2022/01/05 04:30:41;;;;;;;10.20;1.83;;;5.40;99.90;;;;;;5052835;28;20198;-71
2022/01/05 04:33:10;;;;;;;4.53;1.90;;;5.40;99.90;;;;;;5053496;28;20171;-72
2022/01/05 04:35:36;;;;;;;5.60;1.17;;;5.40;99.90;;;;;;5071045;28;20534;-70
2022/01/05 04:38:01;;;;;;;9.07;1.80;;;5.40;99.90;;;;;;5049719;28;20301;-71
2022/01/05 04:40:29;;;;;;;10.73;2.23;;;5.50;99.90;;;;;;5039185;22;20591;-70
2022/01/05 04:42:54;;;;;;;12.00;1.83;;;5.50;99.90;;;;;;4993374;28;20209;-70
2022/01/05 04:45:20;;;;;;;6.10;0.97;;;5.50;99.90;;;;;;5009751;28;20184;-70
2022/01/05 04:47:45;;;;;;;4.57;1.33;;;5.50;99.90;;;;;;4993688;28;20182;-70
2022/01/05 04:50:14;;;;;;;7.13;1.53;;;5.40;99.90;;;;;;5010641;28;20216;-70
2022/01/05 04:52:40;;;;;;;4.77;1.37;;;5.40;99.90;;;;;;4993135;28;20267;-70
2022/01/05 04:55:06;;;;;;;5.10;1.30;;;5.50;99.90;;;;;;4993612;28;20756;-70
2022/01/05 04:57:32;;;;;;;8.37;1.40;;;5.30;99.90;;;;;;4992867;28;20205;-70
2022/01/05 04:59:57;;;;;;;5.87;1.20;;;5.30;99.90;;;;;;4993400;28;20235;-70
2022/01/05 05:02:23;;;;;;;3.80;1.63;;;5.20;99.90;;;;;;4993180;28;20213;-69
2022/01/05 05:04:48;;;;;;;4.83;1.63;;;5.30;99.90;;;;;;5011138;28;20578;-70
2022/01/05 05:07:14;;;;;;;8.07;3.00;;;5.30;99.90;;;;;;4993001;28;20212;-69
2022/01/05 05:09:39;;;;;;;13.57;5.80;;;5.20;99.90;;;;;;4997087;28;20209;-70
2022/01/05 05:12:05;;;;;;;7.30;1.93;;;5.20;99.90;;;;;;4993624;28;20188;-69
2022/01/05 05:14:31;;;;;;;5.20;1.03;;;5.30;99.90;;;;;;5010622;28;20208;-70
2022/01/05 05:16:56;;;;;;;6.10;1.40;;;5.20;99.90;;;;;;4992940;28;20220;-70
2022/01/05 05:19:23;;;;;;;5.80;1.73;;;5.20;99.90;;;;;;5010397;28;20651;-69
2022/01/05 05:21:49;;;;;;;5.33;1.80;;;5.20;99.90;;;;;;5010542;28;20665;-70
2022/01/05 05:24:15;;;;;;;8.33;1.37;;;5.10;99.90;;;;;;5011052;28;20234;-70
2022/01/05 05:26:41;;;;;;;4.70;1.13;;;5.10;99.90;;;;;;4993462;28;20224;-70
2022/01/05 05:29:07;;;;;;;6.30;1.57;;;5.10;99.90;;;;;;4992646;28;20221;-70
2022/01/05 05:31:32;;;;;;;5.67;1.40;;;5.10;99.90;;;;;;5010603;28;20209;-70
2022/01/05 05:33:58;;;;;;;7.00;1.43;;;5.10;99.90;;;;;;5010596;28;20247;-70
2022/01/05 05:36:24;;;;;;;8.50;1.47;;;5.10;99.90;;;;;;5010518;28;20185;-70
2022/01/05 05:38:49;;;;;;;5.87;1.20;;;5.00;99.90;;;;;;4994804;28;20267;-70
2022/01/05 05:41:15;;;;;;;7.97;1.53;;;5.10;99.90;;;;;;4992848;28;20282;-70
2022/01/05 05:43:41;;;;;;;9.47;1.97;;;5.00;99.90;;;;;;4992711;28;20631;-70
2022/01/05 05:46:07;;;;;;;6.97;1.70;;;4.90;99.90;;;;;;4993043;28;20271;-69
2022/01/05 05:48:32;;;;;;;4.40;1.40;;;5.00;99.90;;;;;;4992426;28;20693;-69
2022/01/05 05:50:58;;;;;;;9.23;1.53;;;5.00;99.90;;;;;;5010943;28;20709;-70
2022/01/05 05:53:24;;;;;;;4.07;1.10;;;4.90;99.90;;;;;;5010286;28;20263;-69
2022/01/05 05:55:49;;;;;;;5.13;1.77;;;4.80;99.90;;;;;;5010458;28;20285;-70
2022/01/05 05:58:15;;;;;;;7.87;1.70;;;4.80;99.90;;;;;;5010153;28;20196;-70
2022/01/05 06:00:40;;;;;;;7.73;1.70;;;4.80;99.90;;;;;;5012235;28;20250;-70
2022/01/05 06:03:06;;;;;;;5.17;1.53;;;4.80;99.90;;;;;;5016448;28;20176;-70
2022/01/05 06:05:31;;;;;;;5.20;1.50;;;4.70;99.90;;;;;;5016241;28;20231;-69
2022/01/05 06:07:57;;;;;;;5.60;2.00;;;4.70;99.90;;;;;;5015729;28;20737;-69
2022/01/05 06:10:22;;;;;;;8.07;1.93;;;4.70;99.90;;;;;;5016126;28;20273;-70
2022/01/05 06:12:48;;;;;;;6.37;1.83;;;4.70;99.90;;;;;;5015325;28;20322;-69
2022/01/05 06:15:13;;;;;;;4.50;1.53;;;4.70;99.90;;;;;;5016092;28;20204;-69
2022/01/05 06:17:39;;;;;;;4.33;1.53;;;4.70;99.90;;;;;;5033707;28;20257;-69
2022/01/05 06:20:05;;;;;;;4.50;1.40;;;4.80;99.90;;;;;;5015837;28;20203;-69
2022/01/05 06:22:31;;;;;;;6.13;1.70;;;4.80;99.90;;;;;;5015728;28;20203;-70
2022/01/05 06:24:57;;;;;;;5.60;1.30;;;4.80;99.90;;;;;;5016142;28;20203;-70
2022/01/05 06:27:22;;;;;;;7.70;1.63;;;4.80;99.90;;;;;;5014987;28;20543;-70
2022/01/05 06:29:48;;;;;;;7.30;1.27;;;4.80;99.90;;;;;;5016036;28;20196;-70
2022/01/05 06:32:13;;;;;;;7.63;1.70;;;4.70;99.90;;;;;;5033126;28;20751;-70
2022/01/05 06:34:40;;;;;;;5.57;1.67;;;4.70;99.90;;;;;;5000144;28;20223;-70
2022/01/05 06:37:06;;;;;;;7.57;1.77;;;4.70;99.90;;;;;;5037599;28;20208;-69
2022/01/05 06:39:31;;;;;;;6.60;1.70;;;4.70;99.90;;;;;;5017954;28;20580;-70
2022/01/05 06:41:57;;;;;;;8.17;2.23;;;4.70;99.90;;;;;;5015931;28;20169;-69
2022/01/05 06:44:22;;;;;;;9.47;2.10;;;4.70;99.90;;;;;;5015503;28;20706;-70
2022/01/05 06:46:48;;;;;;;7.83;1.70;;;4.70;99.90;;;;;;5015173;28;20199;-69
2022/01/05 06:49:13;;;;;;;10.37;2.00;;;4.60;99.90;;;;;;5032709;28;20278;-71
2022/01/05 06:51:39;;;;;;;8.47;2.07;;;4.60;99.90;;;;;;5032882;28;20206;-69
2022/01/05 06:54:04;;;;;;;8.20;1.97;;;4.60;99.90;;;;;;5015855;28;20172;-70
2022/01/05 06:56:30;;;;;;;9.97;2.00;;;4.60;99.90;;;;;;5014992;28;20211;-70
2022/01/05 06:58:55;;;;;;;6.33;1.83;;;4.50;99.90;;;;;;5032733;28;20222;-70
2022/01/05 07:01:21;;;;;;;7.57;1.80;;;4.60;99.90;;;;;;5015047;28;20271;-70
2022/01/05 07:03:46;;;;;;;8.30;1.77;;;4.50;99.90;;;;;;5015127;28;20243;-69
2022/01/05 07:06:12;;;;;;;10.83;1.90;;;4.50;99.90;;;;;;5014998;28;20314;-70
2022/01/05 07:08:37;;;;;;;8.00;1.97;;;4.50;99.90;;;;;;5015223;28;20241;-70
2022/01/05 07:11:03;;;;;;;9.70;2.00;;;4.50;99.90;;;;;;5014845;28;20212;-70
2022/01/05 07:13:28;;;;;;;8.93;1.93;;;4.50;99.90;;;;;;5013955;28;20222;-70
2022/01/05 07:15:54;;;;;;;5.47;1.27;;;4.50;99.90;;;;;;5014858;28;20202;-70
2022/01/05 07:18:19;;;;;;;8.53;1.93;;;4.60;99.90;;;;;;5014460;28;20178;-71
2022/01/05 07:20:45;;;;;;;7.93;1.90;;;4.50;99.90;;;;;;5015259;28;20567;-70
2022/01/05 07:23:11;;;;;;;10.30;1.50;;;4.60;99.90;;;;;;5032210;28;20307;-70
2022/01/05 07:25:36;;;;;;;9.70;2.23;;;4.60;99.90;;;;;;5032689;28;20197;-70
2022/01/05 07:28:02;;;;;;;9.90;1.83;;;4.60;99.90;;;;;;5031635;28;20287;-70
2022/01/05 07:30:27;;;;;;;11.63;2.40;;;4.60;99.90;;;;;;5014257;28;20277;-70
2022/01/05 07:32:53;;;;;;;5.33;1.70;;;4.60;99.90;;;;;;5014877;28;20163;-70
2022/01/05 07:35:18;;;;;;;8.97;1.73;;;4.60;99.90;;;;;;5014696;28;20727;-70
2022/01/05 07:37:44;;;;;;;11.47;2.60;;;4.60;99.90;;;;;;5013979;28;20661;-70
2022/01/05 07:40:10;;;;;;;7.87;1.67;;;4.60;99.90;;;;;;5032061;28;20602;-70
2022/01/05 07:42:36;;;;;;;8.33;1.73;;;4.60;99.90;;;;;;5031812;28;20234;-70
2022/01/05 07:45:04;;;;;;;9.27;1.77;;;4.60;99.90;;;;;;5032754;28;20175;-70
2022/01/05 07:47:30;;;;;;;8.97;1.83;;;4.60;99.90;;;;;;5031679;28;20216;-70
2022/01/05 07:49:55;;;;;;;6.43;1.70;;;4.70;99.90;;;;;;5031594;28;20204;-70
2022/01/05 07:52:21;;;;;;;10.17;1.90;;;4.70;99.90;;;;;;5013920;28;20209;-69
2022/01/05 07:54:46;;;;;;;6.10;2.13;;;4.70;99.90;;;;;;5014268;28;20560;-70
2022/01/05 07:57:12;;;;;;;7.83;1.60;;;4.60;99.90;;;;;;5013385;28;20233;-70
2022/01/05 07:59:38;;;;;;;8.30;1.73;;;4.60;99.90;;;;;;5013596;28;20208;-70
2022/01/05 08:02:03;;;;;;;7.93;1.90;;;4.70;99.90;;;;;;5031704;28;20199;-70
2022/01/05 08:04:29;;;;;;;7.33;2.07;;;4.70;99.90;;;;;;5031935;28;20210;-70
2022/01/05 08:06:54;;;;;;;5.17;2.00;;;4.70;99.90;;;;;;5013964;28;20207;-70
2022/01/05 08:09:20;;;;;;;11.33;2.20;;;4.70;99.90;;;;;;5013727;28;20542;-70
2022/01/05 08:11:46;;;;;;;8.67;2.20;;;4.70;99.90;;;;;;5006546;28;20171;-70
2022/01/05 08:14:11;;;;;;;10.17;2.07;;;4.70;99.90;;;;;;5031624;28;20203;-70
2022/01/05 08:16:37;;;;;;;7.97;1.93;;;4.70;99.90;;;;;;5031720;28;20220;-70
2022/01/05 08:19:02;;;;;;;9.03;2.03;;;4.80;99.90;;;;;;5014584;28;20223;-70
2022/01/05 08:21:28;;;;;;;11.40;2.33;;;4.70;99.90;;;;;;5013940;28;20212;-70
2022/01/05 08:23:54;;;;;;;6.33;2.20;;;4.70;99.90;;;;;;5014237;28;20233;-70
2022/01/05 08:26:19;;;;;;;9.67;1.77;;;4.80;99.90;;;;;;5012276;28;20227;-69
2022/01/05 08:28:45;;;;;;;8.30;2.13;;;4.70;99.90;;;;;;5030787;28;20290;-70
2022/01/05 08:31:11;;;;;;;3.10;1.77;;;4.70;99.90;;;;;;5013622;28;20208;-70
2022/01/05 08:33:37;;;;;;;9.50;2.17;;;4.70;99.90;;;;;;5031404;28;20570;-72
2022/01/05 08:36:03;;;;;;;9.43;1.90;;;4.70;99.90;;;;;;5031873;28;20191;-70
2022/01/05 08:38:29;;;;;;;6.97;2.30;;;4.70;99.90;;;;;;5013134;28;20204;-70
2022/01/05 08:40:54;;;;;;;9.73;2.90;;;4.70;99.90;;;;;;5013448;28;20684;-70
2022/01/05 08:43:20;;;;;;;6.33;1.80;;;4.70;99.90;;;;;;5030185;28;20294;-70
2022/01/05 08:45:47;;;;;;;8.17;2.13;;;4.70;99.90;;;;;;5005369;28;20294;-70
2022/01/05 08:48:14;;;;;;;10.33;2.00;;;4.60;99.90;;;;;;5030680;28;20263;-69
2022/01/05 08:50:40;;;;;;;11.17;2.60;;;4.70;99.90;;;;;;5031496;28;20231;-70
2022/01/05 08:53:07;;;;;;;10.17;1.80;;;4.80;99.90;;;;;;5013172;28;20234;-70
2022/01/05 08:55:39;;;;;;;7.00;1.97;;;5.00;99.90;;;;;;5031110;28;20215;-69
2022/01/05 08:58:06;;;;;;;11.83;2.30;;;5.00;99.90;;;;;;5012188;28;20207;-69
2022/01/05 09:00:32;;;;;;;8.20;1.90;;;5.00;99.90;;;;;;5012997;28;20215;-69
2022/01/05 09:02:58;;;;;;;4.43;1.80;;;5.00;99.90;;;;;;5013517;28;20210;-69
2022/01/05 09:05:24;;;;;;;13.57;2.47;;;5.10;99.90;;;;;;5013325;28;20296;-70
2022/01/05 09:07:50;;;;;;;7.43;2.10;;;5.10;99.90;;;;;;5030530;28;20592;-70
2022/01/05 09:10:15;;;;;;;8.13;2.30;;;5.30;99.90;;;;;;5013554;28;20295;-70
2022/01/05 09:12:41;;;;;;;9.20;2.07;;;5.40;99.90;;;;;;5012868;28;20215;-70
2022/01/05 09:15:07;;;;;;;8.23;2.80;;;5.40;99.90;;;;;;5014024;28;20187;-71
2022/01/05 09:17:33;;;;;;;10.60;2.00;;;5.40;99.90;;;;;;5013169;28;20234;-71
2022/01/05 09:19:59;;;;;;;11.37;2.77;;;5.30;99.90;;;;;;5012690;28;20220;-70
2022/01/05 09:22:25;;;;;;;11.67;2.63;;;5.30;99.90;;;;;;5012660;28;20216;-70
2022/01/05 09:24:51;;;;;;;11.40;2.37;;;5.20;99.90;;;;;;5012906;28;20585;-71
2022/01/05 09:27:17;;;;;;;9.27;2.53;;;5.40;99.90;;;;;;5012186;28;20179;-71
2022/01/05 09:29:43;;;;;;;7.27;2.40;;;5.40;99.90;;;;;;5013145;28;20219;-71
2022/01/05 09:32:09;;;;;;;9.07;2.57;;;5.40;99.90;;;;;;5012910;28;20239;-71
2022/01/05 09:34:44;;;;;;;9.03;2.07;;;5.40;99.90;;;;;;5012345;28;20699;-71
2022/01/05 09:42:23;;;;;;;6.57;2.10;;;5.50;99.90;;;;;;5034120;28;20187;-71
2022/01/05 09:44:51;;;;;;;6.27;1.60;;;5.60;99.90;;;;;;5017342;28;20173;-70
2022/01/05 09:48:00;;;;;;;12.47;2.63;;;5.80;99.90;;;;;;5016312;28;20211;-71
2022/01/05 09:50:27;;;;;;;12.87;2.43;;;5.90;99.90;;;;;;5034014;28;20211;-71
2022/01/05 09:52:52;;;;;;;10.27;2.30;;;6.00;99.90;;;;;;5033878;28;20192;-71
2022/01/05 09:55:18;;;;;;;9.10;1.93;;;6.00;99.90;;;;;;5016597;28;20207;-71
2022/01/05 09:57:45;;;;;;;5.73;2.43;;;6.10;99.90;;;;;;5015300;28;20200;-70
2022/01/05 10:00:13;;;;;;;8.90;1.93;;;6.30;99.90;;;;;;5016626;28;20207;-70
2022/01/05 10:02:40;;;;;;;4.87;1.93;;;6.30;99.90;;;;;;5016580;28;20260;-71
2022/01/05 10:05:14;;;;;;;5.00;2.53;;;6.30;99.90;;;;;;5034132;28;20197;-71
2022/01/05 10:07:41;;;;;;;7.40;2.10;;;6.50;99.90;;;;;;5033552;28;20680;-70
2022/01/05 10:10:07;;;;;;;13.40;2.60;;;6.70;99.90;;;;;;5016029;28;20211;-71
2022/01/05 10:12:33;;;;;;;7.30;2.70;;;6.90;99.90;;;;;;5015826;28;20211;-71
2022/01/05 10:14:59;;;;;;;9.37;2.50;;;7.10;99.90;;;;;;5017146;28;20172;-71
2022/01/05 10:17:28;;;;;;;11.50;2.43;;;7.10;99.90;;;;;;5015465;28;20626;-71
2022/01/05 10:19:59;;;;;;;10.77;2.67;;;7.00;99.90;;;;;;5015782;28;20258;-71
2022/01/05 10:22:35;;;;;;;8.27;2.20;;;6.80;99.90;;;;;;5016002;28;20227;-71
2022/01/05 10:25:14;;;;;;;7.13;2.23;;;6.60;99.90;;;;;;5016226;28;20192;-70
2022/01/05 10:27:40;;;;;;;17.50;5.53;;;6.50;99.90;;;;;;5014767;28;20255;-69
2022/01/05 10:30:11;;;;;;;6.73;2.23;;;6.50;99.90;;;;;;5016143;28;20196;-70
2022/01/05 10:32:37;;;;;;;7.30;2.13;;;6.50;99.90;;;;;;5015908;28;20287;-69
2022/01/05 10:35:20;;;;;;;8.97;2.57;;;6.50;99.90;;;;;;5016188;28;20292;-70
2022/01/05 10:37:55;;;;;;;10.20;2.70;;;6.50;99.90;;;;;;5036638;28;20211;-69
2022/01/05 10:40:22;;;;;;;10.27;2.23;;;6.30;99.90;;;;;;5039602;22;20227;-75
2022/01/05 10:42:53;;;;;;;15.87;2.40;;;6.30;99.90;;;;;;5035111;28;20571;-74
2022/01/05 10:45:37;;;;;;;6.80;2.37;;;6.20;99.90;;;;;;5052052;28;20221;-74
2022/01/05 10:48:17;;;;;;;11.70;2.17;;;6.10;99.90;;;;;;5028354;28;20160;-74
2022/01/05 10:50:43;;;;;;;7.80;2.40;;;6.10;99.90;;;;;;5036476;28;20203;-74
2022/01/05 10:53:15;;;;;;;8.03;2.13;;;6.20;99.90;;;;;;5044383;28;20227;-74
2022/01/05 10:55:45;;;;;;;11.63;2.50;;;6.30;99.90;;;;;;5042032;28;20215;-74
2022/01/05 10:58:12;;;;;;;8.13;2.27;;;6.20;99.90;;;;;;5031947;28;20207;-74
2022/01/05 11:00:42;;;;;;;9.67;2.60;;;6.20;99.90;;;;;;5034978;28;20223;-75
2022/01/05 11:03:37;;;;;;;8.67;2.73;;;6.20;99.90;;;;;;5035354;28;20188;-76
2022/01/05 11:06:08;;;;;;;5.80;2.30;;;6.40;99.90;;;;;;5052573;28;20204;-75
2022/01/05 11:08:54;;;;;;;10.07;2.70;;;6.30;99.90;;;;;;5034666;28;20220;-75
2022/01/05 11:11:37;;;;;;;10.20;2.40;;;6.30;99.90;;;;;;5035038;28;20219;-75
2022/01/05 11:14:11;;;;;;;8.27;2.47;;;6.30;99.90;;;;;;5023192;28;20216;-75
2022/01/05 11:16:42;;;;;;;10.10;2.87;;;6.30;99.90;;;;;;5051333;28;20709;-75
2022/01/05 11:19:22;;;;;;;5.73;2.10;;;6.30;99.90;;;;;;5034441;28;20218;-75
2022/01/05 11:22:01;;;;;;;6.77;2.70;;;6.30;99.90;;;;;;5034477;28;20223;-75
2022/01/05 11:24:27;;;;;;;7.93;2.50;;;6.50;99.90;;;;;;5034465;28;20172;-75
2022/01/05 11:26:53;;;;;;;5.90;2.30;;;6.50;99.90;;;;;;5032272;28;20695;-75
2022/01/05 11:29:19;;;;;;;8.97;2.07;;;6.50;99.90;;;;;;5051505;28;20705;-74
2022/01/05 11:31:45;;;;;;;7.50;2.27;;;6.50;99.90;;;;;;5034208;28;20203;-74
2022/01/05 11:34:11;;;;;;;7.77;2.20;;;6.40;99.90;;;;;;5034409;28;20691;-75
2022/01/05 11:36:39;;;;;;;10.57;2.80;;;6.30;99.90;;;;;;5035329;28;20210;-75
2022/01/05 11:39:05;;;;;;;9.13;2.30;;;6.40;99.90;;;;;;5035995;28;20286;-76
2022/01/05 11:41:32;;;;;;;8.77;2.67;;;6.50;99.90;;;;;;5053379;28;20243;-76
2022/01/05 11:43:59;;;;;;;6.43;2.73;;;6.50;99.90;;;;;;5035159;28;20207;-76
2022/01/05 11:46:29;;;;;;;11.93;3.27;;;6.50;99.90;;;;;;5033948;28;20206;-76
2022/01/05 11:49:08;;;;;;;9.37;2.60;;;6.70;99.90;;;;;;5052028;28;20282;-76
2022/01/05 11:51:42;;;;;;;9.33;2.47;;;6.60;99.90;;;;;;5051799;28;20238;-74
2022/01/05 11:54:30;;;;;;;7.27;1.70;;;6.50;99.90;;;;;;5052730;28;20611;-75
2022/01/05 11:57:09;;;;;;;9.60;2.30;;;6.50;99.90;;;;;;5035621;28;20529;-74
2022/01/05 11:59:39;;;;;;;8.53;2.60;;;6.50;99.90;;;;;;5033284;28;20204;-74
2022/01/05 12:02:13;;;;;;;9.10;2.40;;;6.40;99.90;;;;;;5051959;28;20684;-75
2022/01/05 12:04:58;;;;;;;7.47;2.53;;;6.30;99.90;;;;;;5033677;28;20196;-74
2022/01/05 12:07:46;;;;;;;11.97;2.50;;;6.30;99.90;;;;;;5033562;28;20298;-74
2022/01/05 12:10:20;;;;;;;8.03;2.20;;;6.30;99.90;;;;;;5034598;28;20208;-74
2022/01/05 12:13:06;;;;;;;9.00;2.50;;;6.30;99.90;;;;;;5034079;28;20226;-75
2022/01/05 12:15:47;;;;;;;9.83;2.10;;;6.20;99.90;;;;;;5051521;28;20729;-75
2022/01/05 12:18:28;;;;;;;12.63;2.93;;;6.20;99.90;;;;;;5033345;28;20175;-75
2022/01/05 12:20:55;;;;;;;9.37;2.20;;;6.10;99.90;;;;;;5027267;28;20246;-75
2022/01/05 12:23:24;;;;;;;9.70;2.20;;;6.00;99.90;;;;;;5050897;28;20230;-76
2022/01/05 12:26:02;;;;;;;7.87;2.20;;;6.00;99.90;;;;;;5033813;28;20287;-75
2022/01/05 12:28:52;;;;;;;14.40;3.17;;;6.00;99.90;;;;;;5030544;28;20203;-74
2022/01/05 12:31:18;;;;;;;5.07;2.00;;;6.00;99.90;;;;;;5037013;28;20290;-75
2022/01/05 12:33:50;;;;;;;10.23;3.10;;;5.90;99.90;;;;;;5033074;28;20314;-75
2022/01/05 12:36:34;;;;;;;8.73;3.50;;;5.90;99.90;;;;;;5033892;28;20667;-74
2022/01/05 12:39:00;;;;;;;9.87;2.67;;;5.90;99.90;;;;;;5027081;28;20166;-74
2022/01/05 12:41:40;;;;;;;9.30;2.20;;;5.90;99.90;;;;;;5051888;28;20231;-75
2022/01/05 12:44:12;;;;;;;11.20;2.67;;;5.90;99.90;;;;;;5051298;28;20423;-74
2022/01/05 12:46:52;;;;;;;7.83;2.93;;;5.90;99.90;;;;;;5050684;28;20260;-75
2022/01/05 12:49:26;;;;;;;16.40;6.63;;;5.90;99.90;;;;;;5033048;28;20203;-74
2022/01/05 12:51:53;;;;;;;12.27;3.07;;;5.90;99.90;;;;;;5025436;28;20220;-74
2022/01/05 12:54:21;;;;;;;10.90;3.30;;;6.00;99.90;;;;;;5033109;28;20190;-75
2022/01/05 12:57:00;;;;;;;11.13;3.47;;;5.90;99.90;;;;;;5030701;28;20652;-75
2022/01/05 12:59:32;;;;;;;8.80;2.50;;;5.90;99.90;;;;;;5033024;28;20248;-75
2022/01/05 13:02:09;;;;;;;9.67;4.10;;;6.00;99.90;;;;;;5032975;28;20203;-75